KCCB

Cable Airport

Upland, California, USA
METAR KCCB 230255Z AUTO 26010KT 10SM BKN022 16/11 A2990 RMK AO2
Observed Flight Rules
May-23 @ 02:55 UTC (22 minutes ago) Marginal Visual Flight Rules
Wind Visibility Clouds
260° at 10 knots 10 miles
  • Broken at 2,200' AGL
Temperatures Readings
Current 16°C / 61°F
Dewpoint 11°C / 52°F
Humidity 72%
Altimeter 29.9" Hg
Pressure 1013 hPa
Elevation 440
METAR KCCB 230255Z AUTO 26010KT 10SM BKN022 16/11 A2990 RMK AO2
Observed Flight Rules
May-23 @ 02:55 UTC
(22 minutes ago)
MVFR
Wind Visibility
260° at 10 knots 10 miles
Clouds
  • Broken at 2,200' AGL
Temperature Dewpoint
16°C / 61°F 11°C / 52°F
Humidity Altimeter Pressure
72% 29.9" Hg 1013 hPa